Time;durP1;ratioP1;P1;durP2;ratioP2;P2;SDS_P1;SDS_P2;PMS_P1;PMS_P2;Temp;Humidity;BMP_temperature;BMP_pressure;BME280_temperature;BME280_humidity;BME280_pressure;Samples;Min_cycle;Max_cycle;Signal;HPM_P1;HPM_P2
2022/05/16 00:00:39;;;;;;;3.33;2.30;;;;;;;;;;5097629;28;20500;-60
2022/05/16 00:03:07;;;;;;;2.30;2.10;;;;;;;;;;5098422;28;20203;-60
2022/05/16 00:05:35;;;;;;;2.78;2.25;;;;;;;;;;5097415;28;20227;-60
2022/05/16 00:08:03;;;;;;;2.90;2.35;;;;;;;;;;5097699;28;20211;-62
2022/05/16 00:10:30;;;;;;;2.50;2.30;;;;;;;;;;5097623;28;20212;-62
2022/05/16 00:12:59;;;;;;;2.58;2.20;;;;;;;;;;5098079;28;20490;-62
2022/05/16 00:15:27;;;;;;;3.60;2.20;;;;;;;;;;5097695;28;20200;-62
2022/05/16 00:17:55;;;;;;;2.00;1.80;;;;;;;;;;5096860;28;20203;-63
2022/05/16 00:20:23;;;;;;;2.25;2.05;;;;;;;;;;5097234;28;20203;-62
2022/05/16 00:22:51;;;;;;;2.58;2.10;;;;;;;;;;5097633;28;20477;-61
2022/05/16 00:25:18;;;;;;;2.50;2.20;;;;;;;;;;5097624;28;20231;-62
2022/05/16 00:27:46;;;;;;;3.38;2.33;;;;;;;;;;5097168;28;20210;-62
2022/05/16 00:30:15;;;;;;;2.58;2.22;;;;;;;;;;5097396;28;20215;-62
2022/05/16 00:32:42;;;;;;;2.50;2.15;;;;;;;;;;5101795;28;20203;-62
2022/05/16 00:35:12;;;;;;;3.05;2.25;;;;;;;;;;5117273;28;20301;-62
2022/05/16 00:37:39;;;;;;;2.95;2.30;;;;;;;;;;5117326;28;20203;-62
2022/05/16 00:40:08;;;;;;;2.92;1.95;;;;;;;;;;5117277;28;20203;-62
2022/05/16 00:42:35;;;;;;;2.58;2.38;;;;;;;;;;5117677;28;20217;-63
2022/05/16 00:45:03;;;;;;;2.60;2.25;;;;;;;;;;5117206;28;20231;-63
2022/05/16 00:47:30;;;;;;;2.35;2.10;;;;;;;;;;5117725;28;20204;-62
2022/05/16 00:49:58;;;;;;;3.00;2.13;;;;;;;;;;5117198;28;20202;-62
2022/05/16 00:52:28;;;;;;;2.28;1.88;;;;;;;;;;5116883;28;20202;-62
2022/05/16 00:54:57;;;;;;;2.63;2.10;;;;;;;;;;5117313;28;20202;-62
2022/05/16 00:57:25;;;;;;;2.38;2.17;;;;;;;;;;5117808;28;20203;-62
2022/05/16 00:59:55;;;;;;;3.15;2.22;;;;;;;;;;5117578;28;20203;-62
2022/05/16 01:05:09;;;;;;;2.33;2.10;;;;;;;;;;5116534;28;20322;-62
2022/05/16 01:07:39;;;;;;;3.15;2.30;;;;;;;;;;5117471;28;20230;-62
2022/05/16 01:10:08;;;;;;;3.10;2.10;;;;;;;;;;5117091;28;20313;-62
2022/05/16 01:12:36;;;;;;;2.38;2.17;;;;;;;;;;5117193;28;20455;-62
2022/05/16 01:15:06;;;;;;;2.83;2.10;;;;;;;;;;5117245;28;20229;-62
2022/05/16 01:17:33;;;;;;;2.67;2.22;;;;;;;;;;5117604;28;20206;-62
2022/05/16 01:20:01;;;;;;;2.78;2.35;;;;;;;;;;5117277;28;20203;-62
2022/05/16 01:22:32;;;;;;;2.55;1.85;;;;;;;;;;5117151;28;20207;-62
2022/05/16 01:25:01;;;;;;;2.38;2.17;;;;;;;;;;5117052;28;20230;-62
2022/05/16 01:27:29;;;;;;;2.53;2.33;;;;;;;;;;5117407;28;20203;-62
2022/05/16 01:29:56;;;;;;;2.67;2.10;;;;;;;;;;5117405;28;20488;-62
2022/05/16 01:32:23;;;;;;;2.67;2.10;;;;;;;;;;5116979;28;20203;-62
2022/05/16 01:34:51;;;;;;;3.33;2.15;;;;;;;;;;5116780;28;20214;-62
2022/05/16 01:37:18;;;;;;;3.30;2.10;;;;;;;;;;5117383;28;20484;-62
2022/05/16 01:39:47;;;;;;;3.05;2.20;;;;;;;;;;5117026;28;20203;-62
2022/05/16 01:42:15;;;;;;;2.63;1.98;;;;;;;;;;5117520;28;20211;-63
2022/05/16 01:44:43;;;;;;;2.47;2.10;;;;;;;;;;5093365;28;20232;-62
2022/05/16 01:47:11;;;;;;;2.40;2.17;;;;;;;;;;5092901;28;20591;-62
2022/05/16 01:49:39;;;;;;;3.20;2.58;;;;;;;;;;5097104;28;20210;-62
2022/05/16 01:52:06;;;;;;;2.30;2.10;;;;;;;;;;5100370;28;20278;-62
2022/05/16 01:54:34;;;;;;;2.72;1.95;;;;;;;;;;5100869;28;20210;-62
2022/05/16 01:57:03;;;;;;;3.58;2.13;;;;;;;;;;5100401;28;20250;-62
2022/05/16 01:59:30;;;;;;;2.17;1.98;;;;;;;;;;5100648;28;20626;-62
2022/05/16 02:01:57;;;;;;;2.50;2.30;;;;;;;;;;5100629;28;20203;-62
2022/05/16 02:04:25;;;;;;;2.40;2.00;;;;;;;;;;5100392;28;20204;-62
2022/05/16 02:06:53;;;;;;;4.28;2.30;;;;;;;;;;5098935;28;20257;-62
2022/05/16 02:09:20;;;;;;;2.67;2.30;;;;;;;;;;5099319;28;20204;-62
2022/05/16 02:11:47;;;;;;;2.30;2.10;;;;;;;;;;5099853;28;20196;-62
2022/05/16 02:14:16;;;;;;;3.75;2.65;;;;;;;;;;5099522;28;20215;-62
2022/05/16 02:16:44;;;;;;;3.42;2.30;;;;;;;;;;5100434;28;20203;-62
2022/05/16 02:19:11;;;;;;;2.40;2.10;;;;;;;;;;5100327;28;20207;-62
2022/05/16 02:24:42;;;;;;;2.40;2.20;;;;;;;;;;5098959;28;20198;-62
2022/05/16 02:27:10;;;;;;;2.20;2.00;;;;;;;;;;5099435;28;20306;-62
2022/05/16 02:29:39;;;;;;;3.10;2.20;;;;;;;;;;5099823;28;20203;-62
2022/05/16 02:32:07;;;;;;;2.63;2.20;;;;;;;;;;5099592;28;20214;-62
2022/05/16 02:34:34;;;;;;;2.25;2.05;;;;;;;;;;5099746;28;20211;-62
2022/05/16 02:37:02;;;;;;;2.40;2.20;;;;;;;;;;5100120;28;20204;-62
2022/05/16 02:39:29;;;;;;;2.60;2.10;;;;;;;;;;5099902;28;20203;-62
2022/05/16 02:41:56;;;;;;;2.33;2.13;;;;;;;;;;5099710;28;20204;-62
2022/05/16 02:44:24;;;;;;;2.35;2.10;;;;;;;;;;5099015;28;20233;-62
2022/05/16 02:46:53;;;;;;;2.03;1.90;;;;;;;;;;5099163;28;20212;-62
2022/05/16 02:49:21;;;;;;;2.40;2.08;;;;;;;;;;5099164;28;20475;-62
2022/05/16 02:51:49;;;;;;;2.30;2.10;;;;;;;;;;5098791;28;20212;-62
2022/05/16 02:54:16;;;;;;;2.40;2.20;;;;;;;;;;5099149;28;20491;-62
2022/05/16 02:56:43;;;;;;;3.58;2.17;;;;;;;;;;5099140;28;20210;-62
2022/05/16 02:59:11;;;;;;;2.85;2.30;;;;;;;;;;5098532;28;20208;-62
2022/05/16 03:01:38;;;;;;;3.35;2.20;;;;;;;;;;5098611;28;20563;-62
2022/05/16 03:04:07;;;;;;;2.42;2.20;;;;;;;;;;5098875;28;20203;-62
2022/05/16 03:06:35;;;;;;;3.40;2.45;;;;;;;;;;5098962;28;20227;-62
2022/05/16 03:09:02;;;;;;;3.25;1.83;;;;;;;;;;5098627;28;20942;-62
2022/05/16 03:11:29;;;;;;;2.50;2.30;;;;;;;;;;5098976;28;20231;-62
2022/05/16 03:13:57;;;;;;;2.53;2.33;;;;;;;;;;5099033;28;20219;-62
2022/05/16 03:16:24;;;;;;;2.40;2.20;;;;;;;;;;5098831;28;20490;-62
2022/05/16 03:18:51;;;;;;;3.00;2.70;;;;;;;;;;5098324;28;20625;-62
2022/05/16 03:21:20;;;;;;;2.70;2.50;;;;;;;;;;5098131;28;20195;-62
2022/05/16 03:23:48;;;;;;;2.55;2.25;;;;;;;;;;5098725;28;20203;-62
2022/05/16 03:26:15;;;;;;;2.35;2.15;;;;;;;;;;5098262;28;20422;-62
2022/05/16 03:28:42;;;;;;;2.30;2.15;;;;;;;;;;5098978;28;20448;-62
2022/05/16 03:31:10;;;;;;;2.83;2.50;;;;;;;;;;5098693;28;20601;-62
2022/05/16 03:33:37;;;;;;;2.70;2.33;;;;;;;;;;5098640;28;20208;-62
2022/05/16 03:36:05;;;;;;;2.30;2.10;;;;;;;;;;5097961;28;20602;-62
2022/05/16 03:41:18;;;;;;;3.35;2.22;;;;;;;;;;5098109;28;20640;-62
2022/05/16 03:43:46;;;;;;;2.97;2.13;;;;;;;;;;5097825;28;20626;-62
2022/05/16 03:46:14;;;;;;;2.33;2.00;;;;;;;;;;5097585;28;20277;-62
2022/05/16 03:48:41;;;;;;;2.30;2.10;;;;;;;;;;5097644;28;20612;-62
2022/05/16 03:51:09;;;;;;;2.53;2.22;;;;;;;;;;5097487;28;20231;-62
2022/05/16 03:53:45;;;;;;;2.97;2.30;;;;;;;;;;5098126;28;20254;-62
2022/05/16 03:56:13;;;;;;;2.50;2.30;;;;;;;;;;5097862;28;20200;-62
2022/05/16 03:58:41;;;;;;;2.42;2.22;;;;;;;;;;5097013;28;20243;-63
2022/05/16 04:01:08;;;;;;;3.05;2.15;;;;;;;;;;5097625;28;20294;-62
2022/05/16 04:03:35;;;;;;;2.60;2.40;;;;;;;;;;5097832;28;20488;-62
2022/05/16 04:06:03;;;;;;;2.53;2.33;;;;;;;;;;5097385;28;20219;-62
2022/05/16 04:08:31;;;;;;;2.95;2.35;;;;;;;;;;5096355;28;20203;-62
2022/05/16 04:11:00;;;;;;;2.33;2.13;;;;;;;;;;5096678;28;20203;-62
2022/05/16 04:13:28;;;;;;;2.70;2.10;;;;;;;;;;5096592;28;20203;-62
2022/05/16 04:15:55;;;;;;;2.55;2.35;;;;;;;;;;5096977;28;20270;-61
2022/05/16 04:18:23;;;;;;;2.28;2.10;;;;;;;;;;5096802;28;20199;-62
2022/05/16 04:20:50;;;;;;;2.75;2.47;;;;;;;;;;5097119;28;20211;-62
2022/05/16 04:23:18;;;;;;;2.30;1.98;;;;;;;;;;5097362;28;20211;-62
2022/05/16 04:25:46;;;;;;;2.40;2.17;;;;;;;;;;5096792;28;20262;-62
2022/05/16 04:28:14;;;;;;;2.72;2.33;;;;;;;;;;5096402;28;20199;-62
2022/05/16 04:30:42;;;;;;;2.10;1.90;;;;;;;;;;5096792;28;20204;-62
2022/05/16 04:33:10;;;;;;;2.88;2.45;;;;;;;;;;5096565;28;20211;-62
2022/05/16 04:35:37;;;;;;;2.67;2.42;;;;;;;;;;5096263;28;20562;-62
2022/05/16 04:38:05;;;;;;;2.47;2.17;;;;;;;;;;5095887;28;20269;-61
2022/05/16 04:40:33;;;;;;;2.45;2.22;;;;;;;;;;5095349;28;20199;-62
2022/05/16 04:42:59;;;;;;;2.95;2.63;;;;;;;;;;5094746;28;20329;-62
2022/05/16 04:45:29;;;;;;;3.67;2.65;;;;;;;;;;5095898;28;20325;-62
2022/05/16 04:47:58;;;;;;;2.60;2.40;;;;;;;;;;5095302;28;20205;-61
2022/05/16 04:50:27;;;;;;;2.45;2.25;;;;;;;;;;5094957;28;20238;-62
2022/05/16 04:52:54;;;;;;;3.10;2.65;;;;;;;;;;5095617;28;20203;-61
2022/05/16 04:55:23;;;;;;;2.80;2.60;;;;;;;;;;5095140;28;20195;-62
2022/05/16 04:57:50;;;;;;;2.83;2.50;;;;;;;;;;5095465;28;20203;-62
2022/05/16 05:00:19;;;;;;;3.10;2.80;;;;;;;;;;5095084;28;20764;-62
2022/05/16 05:02:48;;;;;;;2.58;2.38;;;;;;;;;;5095568;28;20222;-62
2022/05/16 05:05:15;;;;;;;3.20;2.53;;;;;;;;;;5095083;28;20472;-62
2022/05/16 05:07:43;;;;;;;3.03;2.70;;;;;;;;;;5094320;28;20211;-62
2022/05/16 05:15:42;;;;;;;2.65;2.45;;;;;;;;;;5093959;28;20202;-62
2022/05/16 05:18:11;;;;;;;3.15;2.63;;;;;;;;;;5093779;28;20307;-62
2022/05/16 05:20:39;;;;;;;3.38;3.08;;;;;;;;;;5093574;28;20196;-62
2022/05/16 05:23:06;;;;;;;3.70;3.00;;;;;;;;;;5092637;28;20291;-62
2022/05/16 05:25:34;;;;;;;3.35;2.85;;;;;;;;;;5096518;28;20832;-62
2022/05/16 05:28:03;;;;;;;4.22;3.00;;;;;;;;;;5097089;28;20231;-62
2022/05/16 05:30:32;;;;;;;3.13;2.70;;;;;;;;;;5098827;28;20642;-65
2022/05/16 05:33:00;;;;;;;2.95;2.75;;;;;;;;;;5098330;28;20210;-62
2022/05/16 05:35:30;;;;;;;4.18;2.90;;;;;;;;;;5097967;28;20195;-62
2022/05/16 05:37:58;;;;;;;3.10;2.83;;;;;;;;;;5097851;28;20208;-62
2022/05/16 05:40:25;;;;;;;3.20;2.88;;;;;;;;;;5097541;28;20207;-62
2022/05/16 05:42:53;;;;;;;3.75;2.85;;;;;;;;;;5097026;28;20338;-62
2022/05/16 05:45:22;;;;;;;3.63;2.95;;;;;;;;;;5097221;28;20200;-62
2022/05/16 05:47:50;;;;;;;2.90;2.60;;;;;;;;;;5094778;28;20458;-62
2022/05/16 05:50:18;;;;;;;3.03;2.72;;;;;;;;;;5095594;28;20203;-62
2022/05/16 05:52:47;;;;;;;3.63;3.00;;;;;;;;;;5095914;28;20230;-62
2022/05/16 05:55:14;;;;;;;3.40;3.10;;;;;;;;;;5095859;28;20199;-62
2022/05/16 05:57:41;;;;;;;3.58;3.28;;;;;;;;;;5095154;28;20195;-62
2022/05/16 06:00:11;;;;;;;3.47;3.17;;;;;;;;;;5094786;28;20218;-62
2022/05/16 06:02:40;;;;;;;3.83;3.10;;;;;;;;;;5095209;28;20203;-62
2022/05/16 06:05:08;;;;;;;4.10;3.10;;;;;;;;;;5095721;28;20199;-62
2022/05/16 06:07:36;;;;;;;4.35;3.30;;;;;;;;;;5093857;28;20242;-62
2022/05/16 06:10:05;;;;;;;3.33;2.60;;;;;;;;;;5094255;28;20306;-62
2022/05/16 06:12:33;;;;;;;2.83;2.53;;;;;;;;;;5096730;28;20204;-61
2022/05/16 06:15:00;;;;;;;3.22;2.83;;;;;;;;;;5096442;28;20210;-62
2022/05/16 06:17:27;;;;;;;2.70;2.50;;;;;;;;;;5097013;28;20254;-62
2022/05/16 06:19:56;;;;;;;3.75;2.50;;;;;;;;;;5096518;28;20218;-63
2022/05/16 06:22:24;;;;;;;2.85;2.58;;;;;;;;;;5096163;28;20204;-62
2022/05/16 06:27:38;;;;;;;3.72;2.63;;;;;;;;;;5096366;28;20380;-62
2022/05/16 06:30:06;;;;;;;2.85;2.65;;;;;;;;;;5095854;28;20489;-62
2022/05/16 06:32:33;;;;;;;3.15;2.80;;;;;;;;;;5096706;28;20583;-62
2022/05/16 06:35:00;;;;;;;3.80;2.60;;;;;;;;;;5096788;28;20204;-62
2022/05/16 06:37:28;;;;;;;2.97;2.63;;;;;;;;;;5095051;28;20200;-62
2022/05/16 06:39:55;;;;;;;3.25;2.60;;;;;;;;;;5095433;28;20302;-62
2022/05/16 06:42:23;;;;;;;3.75;2.60;;;;;;;;;;5094373;28;20602;-62
2022/05/16 06:44:52;;;;;;;3.55;2.80;;;;;;;;;;5094892;28;20521;-62
2022/05/16 06:47:19;;;;;;;3.95;2.80;;;;;;;;;;5094786;28;20227;-62
2022/05/16 06:49:47;;;;;;;5.30;2.60;;;;;;;;;;5095977;28;20196;-62
2022/05/16 06:52:16;;;;;;;3.13;2.67;;;;;;;;;;5095499;28;20219;-62
2022/05/16 06:54:43;;;;;;;3.35;2.58;;;;;;;;;;5095146;28;20206;-62
2022/05/16 06:57:11;;;;;;;5.50;2.92;;;;;;;;;;5094843;28;20211;-62
2022/05/16 06:59:38;;;;;;;3.47;2.55;;;;;;;;;;5094266;28;20663;-62
2022/05/16 07:02:08;;;;;;;3.78;2.53;;;;;;;;;;5095106;28;20207;-62
2022/05/16 07:04:37;;;;;;;4.47;2.92;;;;;;;;;;5094796;28;20203;-62
2022/05/16 07:07:05;;;;;;;3.45;2.60;;;;;;;;;;5094729;28;20227;-62
2022/05/16 07:09:32;;;;;;;4.05;2.80;;;;;;;;;;5094344;28;20199;-62
2022/05/16 07:11:59;;;;;;;4.15;2.97;;;;;;;;;;5094940;28;20207;-62
2022/05/16 07:14:27;;;;;;;4.03;2.67;;;;;;;;;;5095219;28;20310;-61
2022/05/16 07:16:54;;;;;;;5.07;2.90;;;;;;;;;;5094481;28;20218;-62
2022/05/16 07:19:23;;;;;;;4.50;3.10;;;;;;;;;;5094466;28;20488;-62
2022/05/16 07:21:50;;;;;;;5.55;2.90;;;;;;;;;;5093562;28;20196;-62
2022/05/16 07:24:18;;;;;;;3.65;3.05;;;;;;;;;;5093672;28;20211;-62
2022/05/16 07:29:30;;;;;;;4.72;3.30;;;;;;;;;;5095015;28;20486;-62
2022/05/16 07:31:57;;;;;;;4.95;3.13;;;;;;;;;;5093826;28;20665;-62
2022/05/16 07:34:26;;;;;;;4.53;3.10;;;;;;;;;;5094297;28;20214;-62
2022/05/16 07:36:53;;;;;;;3.83;3.03;;;;;;;;;;5094279;28;20587;-62
2022/05/16 07:39:21;;;;;;;3.50;2.95;;;;;;;;;;5093567;28;20206;-62
2022/05/16 07:41:52;;;;;;;3.05;2.75;;;;;;;;;;5094947;28;20211;-62
2022/05/16 07:44:19;;;;;;;4.57;3.28;;;;;;;;;;5093998;28;20365;-62
2022/05/16 07:46:47;;;;;;;5.20;3.10;;;;;;;;;;5084806;28;20806;-62
2022/05/16 07:49:14;;;;;;;4.03;2.92;;;;;;;;;;5092726;28;20207;-62
2022/05/16 07:51:43;;;;;;;3.50;3.10;;;;;;;;;;5092231;28;20345;-62
2022/05/16 07:54:11;;;;;;;4.00;2.90;;;;;;;;;;5092380;28;20604;-61
2022/05/16 07:56:39;;;;;;;4.38;3.25;;;;;;;;;;5094281;28;20295;-62
2022/05/16 07:59:06;;;;;;;5.22;3.42;;;;;;;;;;5086091;28;20204;-62
2022/05/16 08:01:34;;;;;;;3.75;3.08;;;;;;;;;;5092008;28;20207;-62
2022/05/16 08:04:01;;;;;;;4.50;3.40;;;;;;;;;;5094293;28;20311;-62
2022/05/16 08:06:29;;;;;;;4.53;3.22;;;;;;;;;;5093006;28;20226;-61
2022/05/16 08:11:42;;;;;;;3.70;2.80;;;;;;;;;;5093629;28;20203;-62
2022/05/16 08:14:11;;;;;;;4.90;3.42;;;;;;;;;;5093152;28;20195;-62
2022/05/16 08:16:38;;;;;;;4.78;3.20;;;;;;;;;;5092891;28;20196;-62
2022/05/16 08:19:06;;;;;;;3.60;2.97;;;;;;;;;;5091604;28;20202;-62
2022/05/16 08:21:34;;;;;;;4.78;3.63;;;;;;;;;;5093318;28;20206;-63
2022/05/16 08:24:07;;;;;;;4.13;3.30;;;;;;;;;;5092954;28;20552;-62
2022/05/16 08:26:35;;;;;;;4.32;3.42;;;;;;;;;;5090043;28;20232;-62
2022/05/16 08:29:02;;;;;;;4.57;3.13;;;;;;;;;;5087968;28;20265;-62
2022/05/16 08:31:30;;;;;;;5.00;2.80;;;;;;;;;;5092121;28;20203;-62
2022/05/16 08:33:58;;;;;;;4.32;3.30;;;;;;;;;;5091953;28;20218;-62
2022/05/16 08:41:59;;;;;;;4.03;3.10;;;;;;;;;;5092215;28;20195;-62
2022/05/16 08:44:29;;;;;;;5.53;3.10;;;;;;;;;;5093203;28;20533;-62
2022/05/16 08:47:12;;;;;;;7.10;3.17;;;;;;;;;;5093483;28;20509;-60
2022/05/16 08:49:44;;;;;;;3.83;3.30;;;;;;;;;;5091864;28;20199;-62
2022/05/16 08:52:14;;;;;;;4.55;3.35;;;;;;;;;;5091927;28;20262;-62
2022/05/16 08:54:45;;;;;;;3.85;2.97;;;;;;;;;;5091186;28;20595;-62
2022/05/16 08:57:15;;;;;;;4.68;3.00;;;;;;;;;;5091562;28;20199;-62
2022/05/16 08:59:43;;;;;;;3.92;3.33;;;;;;;;;;5094442;28;20203;-62
2022/05/16 09:02:16;;;;;;;4.05;3.35;;;;;;;;;;5096856;28;20494;-62
2022/05/16 09:04:48;;;;;;;3.58;3.10;;;;;;;;;;5095036;28;20203;-62
2022/05/16 09:07:17;;;;;;;3.60;3.25;;;;;;;;;;5095947;28;20219;-62
2022/05/16 09:09:50;;;;;;;3.55;3.22;;;;;;;;;;5097561;28;20207;-62
2022/05/16 09:12:19;;;;;;;3.60;2.97;;;;;;;;;;5097356;28;20218;-62
2022/05/16 09:14:56;;;;;;;5.22;3.40;;;;;;;;;;5097768;28;20221;-62
2022/05/16 09:17:31;;;;;;;4.30;3.03;;;;;;;;;;5089571;28;20231;-61
2022/05/16 09:20:13;;;;;;;3.90;3.30;;;;;;;;;;5111124;28;20213;-68
2022/05/16 09:22:44;;;;;;;4.72;3.25;;;;;;;;;;5116569;28;20542;-60
2022/05/16 09:25:15;;;;;;;3.55;3.25;;;;;;;;;;5116980;28;20207;-60
2022/05/16 09:30:30;;;;;;;4.63;3.28;;;;;;;;;;5116791;28;20190;-60
2022/05/16 09:33:00;;;;;;;4.97;3.30;;;;;;;;;;5115541;28;20195;-60
2022/05/16 09:35:31;;;;;;;4.43;3.28;;;;;;;;;;5116284;28;20195;-62
2022/05/16 09:38:00;;;;;;;4.05;3.20;;;;;;;;;;5117203;28;20191;-62
2022/05/16 09:40:34;;;;;;;3.90;3.28;;;;;;;;;;5115504;28;20210;-62
2022/05/16 09:43:05;;;;;;;4.85;3.50;;;;;;;;;;5116239;28;20499;-62
2022/05/16 09:45:32;;;;;;;3.35;3.05;;;;;;;;;;5114144;28;20206;-62
2022/05/16 09:48:00;;;;;;;4.55;3.40;;;;;;;;;;5114671;28;20219;-62
2022/05/16 09:50:28;;;;;;;3.75;3.30;;;;;;;;;;5115270;28;20211;-62
2022/05/16 09:53:11;;;;;;;3.33;3.03;;;;;;;;;;5115808;28;20199;-62
2022/05/16 09:55:47;;;;;;;3.60;2.90;;;;;;;;;;5114192;28;20264;-62
2022/05/16 09:58:16;;;;;;;3.63;3.17;;;;;;;;;;5115725;28;20198;-62
2022/05/16 10:00:46;;;;;;;4.10;3.15;;;;;;;;;;5115436;28;20585;-62
2022/05/16 10:03:22;;;;;;;3.53;2.97;;;;;;;;;;5115941;28;20213;-62
2022/05/16 10:05:51;;;;;;;4.38;3.42;;;;;;;;;;5114197;28;20232;-62
2022/05/16 10:08:25;;;;;;;3.50;3.17;;;;;;;;;;5113832;28;20319;-62
2022/05/16 10:10:55;;;;;;;5.40;3.33;;;;;;;;;;5114007;28;20195;-62
2022/05/16 10:13:22;;;;;;;5.03;3.40;;;;;;;;;;5115092;28;20203;-62
2022/05/16 10:15:51;;;;;;;4.15;3.17;;;;;;;;;;5114316;28;20195;-62
2022/05/16 10:18:20;;;;;;;5.65;3.33;;;;;;;;;;5113701;28;20199;-62
2022/05/16 10:20:49;;;;;;;5.03;3.10;;;;;;;;;;5114361;28;20331;-60
2022/05/16 10:23:22;;;;;;;3.88;2.85;;;;;;;;;;5112944;28;20202;-60
2022/05/16 10:25:52;;;;;;;3.63;3.10;;;;;;;;;;5114999;28;20203;-60
2022/05/16 10:28:24;;;;;;;3.67;3.08;;;;;;;;;;5113459;28;20629;-60
2022/05/16 10:33:53;;;;;;;4.20;3.00;;;;;;;;;;5031272;28;20190;-60
2022/05/16 10:36:25;;;;;;;4.82;3.22;;;;;;;;;;5031801;28;20619;-61
2022/05/16 10:38:55;;;;;;;3.70;3.40;;;;;;;;;;5069828;28;20582;-60
2022/05/16 10:41:26;;;;;;;4.30;3.10;;;;;;;;;;5113181;28;20203;-63
2022/05/16 10:44:02;;;;;;;4.05;2.97;;;;;;;;;;5112913;28;20630;-60
2022/05/16 10:46:31;;;;;;;3.45;3.10;;;;;;;;;;5111073;28;20199;-60
2022/05/16 10:49:01;;;;;;;3.80;3.45;;;;;;;;;;5112879;28;20219;-60
2022/05/16 10:51:32;;;;;;;4.40;3.53;;;;;;;;;;5114040;28;20221;-60
2022/05/16 10:54:06;;;;;;;3.95;3.55;;;;;;;;;;5113263;28;20590;-60
2022/05/16 10:56:41;;;;;;;6.00;3.45;;;;;;;;;;5113268;28;20210;-60
2022/05/16 10:59:14;;;;;;;3.85;3.50;;;;;;;;;;5112806;28;20198;-61
2022/05/16 11:01:43;;;;;;;3.78;3.13;;;;;;;;;;5111965;28;20217;-62
2022/05/16 11:04:20;;;;;;;3.85;3.40;;;;;;;;;;5112122;28;20253;-60
2022/05/16 11:06:58;;;;;;;4.07;3.42;;;;;;;;;;5116407;28;20302;-60
2022/05/16 11:09:31;;;;;;;5.40;3.60;;;;;;;;;;5116201;28;20291;-60
2022/05/16 11:12:01;;;;;;;3.90;3.50;;;;;;;;;;5100391;28;20554;-62
2022/05/16 11:14:33;;;;;;;3.80;3.45;;;;;;;;;;5095663;28;20302;-60
2022/05/16 11:17:05;;;;;;;4.10;3.50;;;;;;;;;;5095399;28;20195;-60
2022/05/16 11:19:38;;;;;;;3.78;3.40;;;;;;;;;;5094923;28;20208;-60
2022/05/16 11:22:08;;;;;;;5.75;3.22;;;;;;;;;;5093482;28;20203;-60
2022/05/16 11:24:38;;;;;;;3.75;3.40;;;;;;;;;;5094895;28;20199;-60
2022/05/16 11:27:11;;;;;;;3.72;3.33;;;;;;;;;;5094959;28;20200;-61
2022/05/16 11:29:44;;;;;;;3.90;3.50;;;;;;;;;;5095230;28;20196;-61
2022/05/16 11:32:21;;;;;;;4.47;3.50;;;;;;;;;;5094551;28;20469;-62
2022/05/16 11:34:56;;;;;;;3.60;3.28;;;;;;;;;;5093512;28;20575;-62
2022/05/16 11:37:30;;;;;;;3.53;3.22;;;;;;;;;;5094956;28;20587;-60
2022/05/16 11:40:00;;;;;;;5.25;3.30;;;;;;;;;;5093951;28;20199;-60
2022/05/16 11:42:33;;;;;;;4.65;3.58;;;;;;;;;;5094508;28;20210;-60
2022/05/16 11:45:08;;;;;;;4.18;3.08;;;;;;;;;;5095260;28;20212;-60
2022/05/16 11:47:38;;;;;;;5.78;3.47;;;;;;;;;;5094557;28;20222;-62
2022/05/16 11:50:09;;;;;;;3.53;3.00;;;;;;;;;;5094067;28;20621;-60
2022/05/16 11:52:41;;;;;;;3.05;2.78;;;;;;;;;;5093547;28;20200;-60
2022/05/16 12:00:43;;;;;;;4.63;3.03;;;;;;;;;;5094368;28;20194;-60
2022/05/16 12:03:18;;;;;;;3.55;3.00;;;;;;;;;;5094713;28;20200;-60
2022/05/16 12:05:46;;;;;;;5.45;3.50;;;;;;;;;;5092643;28;20230;-62
2022/05/16 12:08:32;;;;;;;6.43;3.72;;;;;;;;;;5092189;28;20757;-60
2022/05/16 12:11:10;;;;;;;5.78;3.63;;;;;;;;;;5114392;28;20207;-62
2022/05/16 12:13:39;;;;;;;5.80;3.97;;;;;;;;;;5114840;28;20195;-62
2022/05/16 12:16:18;;;;;;;6.85;4.07;;;;;;;;;;5114153;28;20218;-62
2022/05/16 12:18:46;;;;;;;4.82;4.05;;;;;;;;;;5093370;28;20283;-62
2022/05/16 12:21:14;;;;;;;5.40;4.13;;;;;;;;;;5094171;28;20204;-60
2022/05/16 12:23:59;;;;;;;6.97;4.57;;;;;;;;;;5093725;28;20204;-62
2022/05/16 12:26:57;;;;;;;6.20;4.05;;;;;;;;;;5094446;28;20276;-61
2022/05/16 12:29:24;;;;;;;5.05;3.90;;;;;;;;;;5103759;28;20229;-62
2022/05/16 12:31:54;;;;;;;6.25;4.35;;;;;;;;;;5112832;28;20234;-60
2022/05/16 12:34:45;;;;;;;4.28;3.90;;;;;;;;;;5113702;28;20199;-60
2022/05/16 12:37:13;;;;;;;5.90;3.80;;;;;;;;;;5114388;28;20203;-59
2022/05/16 12:39:44;;;;;;;4.80;3.53;;;;;;;;;;5113937;28;20481;-60
2022/05/16 12:42:18;;;;;;;3.70;3.40;;;;;;;;;;5114652;28;20203;-60
2022/05/16 12:44:47;;;;;;;5.47;4.03;;;;;;;;;;5111640;28;20245;-60
2022/05/16 12:47:33;;;;;;;6.43;3.95;;;;;;;;;;5112264;28;20195;-60
2022/05/16 12:50:14;;;;;;;4.97;4.40;;;;;;;;;;5112491;28;20203;-60
2022/05/16 12:52:59;;;;;;;6.07;3.90;;;;;;;;;;5114953;28;20195;-60
2022/05/16 12:55:47;;;;;;;4.07;3.67;;;;;;;;;;5114449;28;20627;-62
2022/05/16 12:58:16;;;;;;;3.65;3.35;;;;;;;;;;5113970;28;20195;-60
2022/05/16 13:00:47;;;;;;;3.70;3.40;;;;;;;;;;5109089;28;20206;-60
2022/05/16 13:03:22;;;;;;;3.58;3.28;;;;;;;;;;5113936;28;20194;-60
2022/05/16 13:05:58;;;;;;;4.80;3.42;;;;;;;;;;5113018;28;20577;-60
2022/05/16 13:08:30;;;;;;;3.95;3.55;;;;;;;;;;5112712;28;20244;-60
2022/05/16 13:11:01;;;;;;;3.50;3.20;;;;;;;;;;5113378;28;20195;-60
2022/05/16 13:13:42;;;;;;;3.25;3.03;;;;;;;;;;5113348;28;20720;-60
2022/05/16 13:16:14;;;;;;;3.67;3.35;;;;;;;;;;5112977;28;20201;-60
2022/05/16 13:18:45;;;;;;;3.40;3.20;;;;;;;;;;5112810;28;20611;-60
2022/05/16 13:21:15;;;;;;;3.75;3.38;;;;;;;;;;5114174;28;20203;-62
2022/05/16 13:23:43;;;;;;;3.72;3.40;;;;;;;;;;5113116;28;20210;-60
2022/05/16 13:31:42;;;;;;;4.53;3.67;;;;;;;;;;5113071;28;20199;-62
2022/05/16 13:34:11;;;;;;;4.32;3.50;;;;;;;;;;5113536;28;20195;-62
2022/05/16 13:36:45;;;;;;;3.95;3.55;;;;;;;;;;5113370;28;20199;-60
2022/05/16 13:39:15;;;;;;;4.00;3.65;;;;;;;;;;5114066;28;20669;-62
2022/05/16 13:41:44;;;;;;;3.97;3.60;;;;;;;;;;5113674;28;20211;-60
2022/05/16 13:44:12;;;;;;;4.78;4.20;;;;;;;;;;5113366;28;20239;-60
2022/05/16 13:46:40;;;;;;;4.05;3.70;;;;;;;;;;5115544;28;20202;-62
2022/05/16 13:49:09;;;;;;;3.80;3.40;;;;;;;;;;5116934;28;20229;-60
2022/05/16 13:51:42;;;;;;;3.97;3.67;;;;;;;;;;5117267;28;20207;-60
2022/05/16 13:54:16;;;;;;;4.18;3.65;;;;;;;;;;5116887;28;20206;-60
2022/05/16 13:56:47;;;;;;;5.45;4.10;;;;;;;;;;5116148;28;20674;-62
2022/05/16 13:59:14;;;;;;;4.28;3.88;;;;;;;;;;5117131;28;20195;-60
2022/05/16 14:01:51;;;;;;;3.72;3.42;;;;;;;;;;5116677;28;20222;-60
2022/05/16 14:04:20;;;;;;;4.78;3.63;;;;;;;;;;5116699;28;20206;-60
2022/05/16 14:06:50;;;;;;;4.43;4.03;;;;;;;;;;5116255;28;20219;-60
2022/05/16 14:09:22;;;;;;;4.57;4.18;;;;;;;;;;5116559;28;20218;-60
2022/05/16 14:11:51;;;;;;;4.30;3.95;;;;;;;;;;5116195;28;20207;-60
2022/05/16 14:14:21;;;;;;;6.13;4.70;;;;;;;;;;5116806;28;20298;-59
2022/05/16 14:16:50;;;;;;;4.95;4.50;;;;;;;;;;5116612;28;20199;-60
2022/05/16 14:19:30;;;;;;;4.85;4.35;;;;;;;;;;5116592;28;20206;-60
2022/05/16 14:22:01;;;;;;;5.57;5.00;;;;;;;;;;5116902;28;20203;-59
2022/05/16 14:24:35;;;;;;;5.68;5.10;;;;;;;;;;5116706;28;20479;-60
2022/05/16 14:27:02;;;;;;;5.72;5.22;;;;;;;;;;5116657;28;20569;-60
2022/05/16 14:29:32;;;;;;;5.20;4.70;;;;;;;;;;5116878;28;20234;-60
2022/05/16 14:32:06;;;;;;;4.35;3.95;;;;;;;;;;5116193;28;20304;-60
2022/05/16 14:34:36;;;;;;;5.00;4.57;;;;;;;;;;5115490;28;20225;-60
2022/05/16 14:37:05;;;;;;;4.88;4.35;;;;;;;;;;5115649;28;20271;-60
2022/05/16 14:39:42;;;;;;;6.32;4.50;;;;;;;;;;5115987;28;20199;-60
2022/05/16 14:42:12;;;;;;;4.78;4.32;;;;;;;;;;5116818;28;20194;-60
2022/05/16 14:44:40;;;;;;;4.70;4.30;;;;;;;;;;5115611;28;20687;-60
2022/05/16 14:47:16;;;;;;;6.03;4.18;;;;;;;;;;5115205;28;20210;-60
2022/05/16 14:49:44;;;;;;;4.63;3.70;;;;;;;;;;5115446;28;20292;-60
2022/05/16 14:52:11;;;;;;;5.43;4.40;;;;;;;;;;5115156;28;20209;-60
2022/05/16 14:54:43;;;;;;;4.70;4.30;;;;;;;;;;5115608;28;20198;-60
2022/05/16 14:57:10;;;;;;;4.47;4.18;;;;;;;;;;5114935;28;20209;-60
2022/05/16 14:59:38;;;;;;;5.60;4.47;;;;;;;;;;5116117;28;20194;-60
2022/05/16 15:04:51;;;;;;;5.47;4.88;;;;;;;;;;5116106;28;20639;-60
2022/05/16 15:07:20;;;;;;;5.75;5.05;;;;;;;;;;5117048;28;20199;-60
2022/05/16 15:09:49;;;;;;;4.82;4.10;;;;;;;;;;5115778;28;20230;-60
2022/05/16 15:12:16;;;;;;;6.13;4.30;;;;;;;;;;5114989;28;20199;-60
2022/05/16 15:14:44;;;;;;;4.20;3.90;;;;;;;;;;5110909;28;20213;-60
2022/05/16 15:17:13;;;;;;;4.57;3.88;;;;;;;;;;5110139;28;20585;-60
2022/05/16 15:19:41;;;;;;;4.07;3.67;;;;;;;;;;5115437;28;20259;-60
2022/05/16 15:22:09;;;;;;;4.28;3.88;;;;;;;;;;5115309;28;20218;-60
2022/05/16 15:24:39;;;;;;;4.32;3.97;;;;;;;;;;5115431;28;20206;-59
2022/05/16 15:27:09;;;;;;;4.30;3.90;;;;;;;;;;5115989;28;20203;-60
2022/05/16 15:29:37;;;;;;;4.00;3.60;;;;;;;;;;5097930;28;20276;-60
2022/05/16 15:32:05;;;;;;;4.30;4.00;;;;;;;;;;5114010;28;20271;-60
2022/05/16 15:34:34;;;;;;;4.57;3.88;;;;;;;;;;5114756;28;20207;-60
2022/05/16 15:37:02;;;;;;;4.35;3.92;;;;;;;;;;5113944;28;20298;-60
2022/05/16 15:39:31;;;;;;;4.15;3.85;;;;;;;;;;5115234;28;20269;-60
2022/05/16 15:41:59;;;;;;;6.72;3.90;;;;;;;;;;5115031;28;20207;-60
2022/05/16 15:44:27;;;;;;;4.47;4.07;;;;;;;;;;5097244;28;20240;-60